EWG2767 EPKK-EPGD
Flight info
| Callsign | EWG2767 |
|---|---|
| Flight time | 1h 11m |
| Altitude | 36000 |
| Route | NAVUR N744 OVBOR N133 GRUDA Z95 OSLOG |
| Aircraft | A319/M-SDE3FGHIRWY/LB1 |
Departure
| Time | 2026-05-04 16:41 |
|---|---|
| Airport | Kraków John Paul II International Airport (EPKK) |
Arrival
| Time | 2026-05-04 17:53 |
|---|---|
| Airport | Gdańsk Lech Wałęsa Airport (EPGD) |
| Time | Latitude | Longitude | Altitude | Speed | Heading |
|---|---|---|---|---|---|
| 2026-05-04 16:25 | 50.07500 | 19.80273 | 800 ft | 0 kts | 168° |
| 2026-05-04 16:35 | 50.07496 | 19.80274 | 800 ft | 2 kts | 168° |
| 2026-05-04 16:36 | 50.07477 | 19.80281 | 800 ft | 4 kts | 167° |
| 2026-05-04 16:36 | 50.07517 | 19.80403 | 800 ft | 24 kts | 15° |
| 2026-05-04 16:37 | 50.07607 | 19.80414 | 800 ft | 2 kts | 350° |
| 2026-05-04 16:37 | 50.07625 | 19.80409 | 800 ft | 3 kts | 350° |
| 2026-05-04 16:37 | 50.07688 | 19.80390 | 800 ft | 6 kts | 346° |
| 2026-05-04 16:38 | 50.07789 | 19.80357 | 800 ft | 8 kts | 348° |
| 2026-05-04 16:39 | 50.07935 | 19.80309 | 800 ft | 10 kts | 348° |
| 2026-05-04 16:39 | 50.08005 | 19.80257 | 800 ft | 11 kts | 322° |
| 2026-05-04 16:40 | 50.08001 | 19.80119 | 801 ft | 0 kts | 258° |
| 2026-05-04 16:41 | 50.07791 | 19.78615 | 802 ft | 139 kts | 258° |
| 2026-05-04 16:41 | 50.07106 | 19.73814 | 2384 ft | 167 kts | 256° |
| 2026-05-04 16:42 | 50.06220 | 19.67449 | 3659 ft | 232 kts | 258° |
| 2026-05-04 16:43 | 50.07428 | 19.62883 | 5264 ft | 255 kts | 326° |
| 2026-05-04 16:43 | 50.10294 | 19.61458 | 6791 ft | 263 kts | 348° |
| 2026-05-04 16:43 | 50.12130 | 19.61410 | 7601 ft | 269 kts | 8° |
| 2026-05-04 16:44 | 50.18857 | 19.67810 | 7976 ft | 293 kts | 41° |
| 2026-05-04 16:45 | 50.21944 | 19.71965 | 7977 ft | 293 kts | 41° |
| 2026-05-04 16:46 | 50.26577 | 19.78234 | 7978 ft | 294 kts | 41° |
| 2026-05-04 16:46 | 50.29657 | 19.82442 | 7980 ft | 295 kts | 41° |
| 2026-05-04 16:47 | 50.32768 | 19.86689 | 8514 ft | 302 kts | 41° |
| 2026-05-04 16:47 | 50.36405 | 19.89863 | 10497 ft | 309 kts | 14° |
| 2026-05-04 16:48 | 50.43292 | 19.90303 | 10977 ft | 337 kts | 359° |
| 2026-05-04 16:48 | 50.45646 | 19.90318 | 10975 ft | 337 kts | 359° |
| 2026-05-04 16:49 | 50.50381 | 19.90383 | 11621 ft | 344 kts | 359° |
| 2026-05-04 16:49 | 50.55154 | 19.90455 | 11972 ft | 342 kts | 359° |
| 2026-05-04 16:50 | 50.59896 | 19.90523 | 11978 ft | 341 kts | 359° |
| 2026-05-04 16:50 | 50.64634 | 19.90579 | 11978 ft | 341 kts | 359° |
| 2026-05-04 16:51 | 50.69446 | 19.90672 | 13598 ft | 348 kts | 359° |
| 2026-05-04 16:51 | 50.71875 | 19.90730 | 14422 ft | 350 kts | 359° |
| 2026-05-04 16:51 | 50.76790 | 19.90844 | 15980 ft | 356 kts | 359° |
| 2026-05-04 16:52 | 50.81779 | 19.90927 | 17518 ft | 362 kts | 359° |
| 2026-05-04 16:52 | 50.84308 | 19.90964 | 18280 ft | 365 kts | 359° |
| 2026-05-04 16:53 | 50.89464 | 19.91054 | 19602 ft | 371 kts | 359° |
| 2026-05-04 16:53 | 50.97310 | 19.91127 | 21574 ft | 381 kts | 1° |
| 2026-05-04 16:54 | 50.99948 | 19.91711 | 22209 ft | 387 kts | 12° |
| 2026-05-04 16:55 | 51.09809 | 19.99132 | 24513 ft | 398 kts | 10° |
| 2026-05-04 16:55 | 51.15321 | 19.99175 | 25538 ft | 399 kts | 347° |
| 2026-05-04 16:56 | 51.20658 | 19.96649 | 26539 ft | 402 kts | 341° |
| 2026-05-04 16:56 | 51.28726 | 19.92504 | 27980 ft | 410 kts | 341° |
| 2026-05-04 16:57 | 51.31448 | 19.91087 | 28463 ft | 413 kts | 341° |
| 2026-05-04 16:57 | 51.36941 | 19.88223 | 29379 ft | 418 kts | 341° |
| 2026-05-04 16:58 | 51.45307 | 19.83861 | 30592 ft | 425 kts | 341° |
| 2026-05-04 16:58 | 51.48130 | 19.82388 | 30955 ft | 427 kts | 341° |
| 2026-05-04 16:59 | 51.53805 | 19.79408 | 31675 ft | 431 kts | 341° |
| 2026-05-04 17:00 | 51.65259 | 19.73776 | 33740 ft | 424 kts | 348° |
| 2026-05-04 17:00 | 51.73626 | 19.69430 | 35037 ft | 420 kts | 338° |
| 2026-05-04 17:01 | 51.79122 | 19.66081 | 35807 ft | 419 kts | 339° |
| 2026-05-04 17:01 | 51.84617 | 19.63149 | 35949 ft | 411 kts | 342° |
| 2026-05-04 17:02 | 51.90075 | 19.60586 | 35940 ft | 408 kts | 343° |
| 2026-05-04 17:03 | 51.98240 | 19.56715 | 35939 ft | 407 kts | 342° |
| 2026-05-04 17:03 | 52.06369 | 19.52677 | 35939 ft | 407 kts | 342° |
| 2026-05-04 17:04 | 52.17245 | 19.47289 | 35927 ft | 407 kts | 342° |
| 2026-05-04 17:05 | 52.28084 | 19.41898 | 35920 ft | 407 kts | 341° |
| 2026-05-04 17:06 | 52.36252 | 19.37803 | 35921 ft | 408 kts | 341° |
| 2026-05-04 17:07 | 52.43534 | 19.34347 | 35667 ft | 410 kts | 343° |
| 2026-05-04 17:07 | 52.47228 | 19.32785 | 35309 ft | 408 kts | 344° |
| 2026-05-04 17:07 | 52.49968 | 19.31652 | 34835 ft | 405 kts | 344° |
| 2026-05-04 17:08 | 52.52694 | 19.30517 | 34331 ft | 402 kts | 344° |
| 2026-05-04 17:08 | 52.58077 | 19.28218 | 33311 ft | 397 kts | 343° |
| 2026-05-04 17:08 | 52.60737 | 19.27064 | 32835 ft | 393 kts | 343° |
| 2026-05-04 17:09 | 52.63366 | 19.25920 | 32357 ft | 389 kts | 343° |
| 2026-05-04 17:09 | 52.65976 | 19.24785 | 31887 ft | 386 kts | 343° |
| 2026-05-04 17:09 | 52.68562 | 19.23661 | 31430 ft | 383 kts | 343° |
| 2026-05-04 17:10 | 52.73681 | 19.21432 | 30521 ft | 378 kts | 343° |
| 2026-05-04 17:10 | 52.81240 | 19.18110 | 29161 ft | 370 kts | 343° |
| 2026-05-04 17:11 | 52.82884 | 19.17389 | 28883 ft | 369 kts | 343° |
| 2026-05-04 17:11 | 52.85356 | 19.16310 | 28476 ft | 365 kts | 343° |
| 2026-05-04 17:11 | 52.90253 | 19.14165 | 27665 ft | 358 kts | 343° |
| 2026-05-04 17:12 | 52.92622 | 19.13124 | 27269 ft | 355 kts | 342° |
| 2026-05-04 17:12 | 52.97379 | 19.11029 | 26475 ft | 348 kts | 342° |
| 2026-05-04 17:13 | 52.98534 | 19.10518 | 26283 ft | 346 kts | 342° |
| 2026-05-04 17:23 | 53.00772 | 19.09551 | 25513 ft | 355 kts | 342° |
| 2026-05-04 17:24 | 53.03119 | 19.08513 | 25369 ft | 343 kts | 341° |
| 2026-05-04 17:24 | 53.09911 | 19.05468 | 24248 ft | 335 kts | 341° |
| 2026-05-04 17:25 | 53.12157 | 19.04464 | 23829 ft | 334 kts | 341° |
| 2026-05-04 17:25 | 53.16638 | 19.02471 | 22915 ft | 332 kts | 341° |
| 2026-05-04 17:26 | 53.21068 | 19.00490 | 22085 ft | 328 kts | 340° |
| 2026-05-04 17:26 | 53.27635 | 18.97550 | 20854 ft | 324 kts | 340° |
| 2026-05-04 17:27 | 53.31976 | 18.95605 | 20041 ft | 322 kts | 340° |
| 2026-05-04 17:27 | 53.36301 | 18.93660 | 19256 ft | 322 kts | 340° |
| 2026-05-04 17:28 | 53.40622 | 18.91709 | 18460 ft | 322 kts | 340° |
| 2026-05-04 17:29 | 53.47100 | 18.88787 | 17238 ft | 320 kts | 340° |
| 2026-05-04 17:29 | 53.53513 | 18.85892 | 16092 ft | 317 kts | 340° |
| 2026-05-04 17:30 | 53.59885 | 18.82993 | 14966 ft | 316 kts | 340° |
| 2026-05-04 17:31 | 53.64122 | 18.81062 | 14215 ft | 315 kts | 340° |
| 2026-05-04 17:31 | 53.70626 | 18.78088 | 13018 ft | 312 kts | 340° |
| 2026-05-04 17:32 | 53.72455 | 18.77249 | 12681 ft | 311 kts | 340° |
| 2026-05-04 17:33 | 53.76739 | 18.75876 | 14539 ft | 275 kts | 346° |
| 2026-05-04 17:33 | 53.78723 | 18.75618 | 13835 ft | 296 kts | 353° |
| 2026-05-04 17:34 | 53.84876 | 18.75702 | 12694 ft | 301 kts | 356° |
| 2026-05-04 17:34 | 53.86947 | 18.75814 | 12521 ft | 294 kts | 356° |
| 2026-05-04 17:35 | 53.93139 | 18.76147 | 11376 ft | 295 kts | 356° |
| 2026-05-04 17:35 | 53.97309 | 18.76348 | 10485 ft | 300 kts | 357° |
| 2026-05-04 17:35 | 53.98692 | 18.76415 | 10351 ft | 299 kts | 357° |
| 2026-05-04 17:36 | 54.00767 | 18.76515 | 10126 ft | 298 kts | 357° |
| 2026-05-04 17:36 | 54.02840 | 18.76611 | 9958 ft | 297 kts | 356° |
| 2026-05-04 17:36 | 54.04905 | 18.76709 | 9799 ft | 297 kts | 357° |
| 2026-05-04 17:36 | 54.06975 | 18.76809 | 9626 ft | 289 kts | 357° |
| 2026-05-04 17:37 | 54.08945 | 18.76897 | 9488 ft | 277 kts | 354° |
| 2026-05-04 17:37 | 54.10761 | 18.76307 | 9341 ft | 258 kts | 332° |
| 2026-05-04 17:37 | 54.12221 | 18.74738 | 9161 ft | 241 kts | 311° |
| 2026-05-04 17:37 | 54.13224 | 18.72516 | 9103 ft | 235 kts | 293° |
| 2026-05-04 17:38 | 54.13878 | 18.69978 | 9010 ft | 234 kts | 289° |
| 2026-05-04 17:38 | 54.14514 | 18.67427 | 8882 ft | 234 kts | 289° |
| 2026-05-04 17:38 | 54.15152 | 18.64882 | 8760 ft | 233 kts | 290° |
| 2026-05-04 17:38 | 54.16113 | 18.62647 | 8621 ft | 241 kts | 318° |
| 2026-05-04 17:39 | 54.19453 | 18.62344 | 8331 ft | 264 kts | 19° |
| 2026-05-04 17:39 | 54.21124 | 18.63629 | 8160 ft | 266 kts | 28° |
| 2026-05-04 17:39 | 54.22407 | 18.65919 | 8003 ft | 271 kts | 62° |
| 2026-05-04 17:40 | 54.22853 | 18.69012 | 7844 ft | 269 kts | 94° |
| 2026-05-04 17:40 | 54.22394 | 18.72055 | 7714 ft | 265 kts | 117° |
| 2026-05-04 17:40 | 54.21665 | 18.74954 | 7556 ft | 266 kts | 117° |
| 2026-05-04 17:40 | 54.20936 | 18.77850 | 7407 ft | 265 kts | 117° |
| 2026-05-04 17:41 | 54.20209 | 18.80745 | 7264 ft | 265 kts | 117° |
| 2026-05-04 17:41 | 54.19480 | 18.83629 | 7133 ft | 264 kts | 117° |
| 2026-05-04 17:41 | 54.18753 | 18.86506 | 6995 ft | 264 kts | 117° |
| 2026-05-04 17:41 | 54.18028 | 18.89380 | 6871 ft | 263 kts | 116° |
| 2026-05-04 17:42 | 54.17307 | 18.92246 | 6737 ft | 263 kts | 116° |
| 2026-05-04 17:42 | 54.16582 | 18.95116 | 6627 ft | 262 kts | 116° |
| 2026-05-04 17:42 | 54.15859 | 18.97970 | 6494 ft | 262 kts | 116° |
| 2026-05-04 17:42 | 54.15196 | 19.00864 | 6359 ft | 263 kts | 105° |
| 2026-05-04 17:43 | 54.15310 | 19.03904 | 6212 ft | 255 kts | 67° |
| 2026-05-04 17:43 | 54.16363 | 19.06281 | 6058 ft | 238 kts | 31° |
| 2026-05-04 17:43 | 54.17777 | 19.07483 | 5924 ft | 229 kts | 18° |
| 2026-05-04 17:43 | 54.19247 | 19.08527 | 5784 ft | 227 kts | 13° |
| 2026-05-04 17:44 | 54.20761 | 19.08714 | 5656 ft | 212 kts | 342° |
| 2026-05-04 17:44 | 54.22035 | 19.07746 | 5534 ft | 193 kts | 315° |
| 2026-05-04 17:44 | 54.22863 | 19.06087 | 5428 ft | 179 kts | 292° |
| 2026-05-04 17:44 | 54.23357 | 19.04154 | 5341 ft | 177 kts | 288° |
| 2026-05-04 17:45 | 54.23843 | 19.02226 | 5248 ft | 177 kts | 289° |
| 2026-05-04 17:45 | 54.24332 | 19.00296 | 5154 ft | 177 kts | 289° |
| 2026-05-04 17:45 | 54.24819 | 18.98374 | 5054 ft | 176 kts | 289° |
| 2026-05-04 17:45 | 54.25306 | 18.96450 | 4949 ft | 176 kts | 289° |
| 2026-05-04 17:46 | 54.25790 | 18.94528 | 4808 ft | 175 kts | 289° |
| 2026-05-04 17:46 | 54.26278 | 18.92592 | 4656 ft | 175 kts | 289° |
| 2026-05-04 17:46 | 54.26760 | 18.90682 | 4522 ft | 175 kts | 289° |
| 2026-05-04 17:46 | 54.27238 | 18.88781 | 4377 ft | 174 kts | 289° |
| 2026-05-04 17:47 | 54.27717 | 18.86882 | 4254 ft | 173 kts | 289° |
| 2026-05-04 17:47 | 54.28193 | 18.84990 | 4117 ft | 173 kts | 289° |
| 2026-05-04 17:47 | 54.28669 | 18.83096 | 3981 ft | 173 kts | 290° |
| 2026-05-04 17:47 | 54.29144 | 18.81206 | 3847 ft | 172 kts | 290° |
| 2026-05-04 17:48 | 54.29616 | 18.79323 | 3713 ft | 172 kts | 290° |
| 2026-05-04 17:48 | 54.30087 | 18.77443 | 3580 ft | 172 kts | 290° |
| 2026-05-04 17:48 | 54.30558 | 18.75568 | 3447 ft | 171 kts | 290° |
| 2026-05-04 17:48 | 54.31026 | 18.73698 | 3310 ft | 170 kts | 290° |
| 2026-05-04 17:49 | 54.31494 | 18.71828 | 3181 ft | 171 kts | 290° |
| 2026-05-04 17:49 | 54.31962 | 18.69955 | 3046 ft | 171 kts | 290° |
| 2026-05-04 17:49 | 54.32424 | 18.68103 | 2860 ft | 172 kts | 290° |
| 2026-05-04 17:49 | 54.32903 | 18.66185 | 2612 ft | 173 kts | 291° |
| 2026-05-04 17:50 | 54.33374 | 18.64297 | 2430 ft | 170 kts | 291° |
| 2026-05-04 17:50 | 54.33827 | 18.62483 | 2173 ft | 161 kts | 291° |
| 2026-05-04 17:50 | 54.34251 | 18.60783 | 1932 ft | 151 kts | 291° |
| 2026-05-04 17:50 | 54.34652 | 18.59158 | 1733 ft | 144 kts | 291° |
| 2026-05-04 17:51 | 54.35037 | 18.57603 | 1568 ft | 140 kts | 291° |
| 2026-05-04 17:51 | 54.35416 | 18.56073 | 1397 ft | 139 kts | 291° |
| 2026-05-04 17:51 | 54.35785 | 18.54586 | 1214 ft | 138 kts | 291° |
| 2026-05-04 17:51 | 54.36164 | 18.53059 | 1026 ft | 136 kts | 291° |
| 2026-05-04 17:52 | 54.36525 | 18.51603 | 842 ft | 130 kts | 292° |
| 2026-05-04 17:52 | 54.36877 | 18.50194 | 640 ft | 128 kts | 292° |
| 2026-05-04 17:52 | 54.37224 | 18.48808 | 516 ft | 125 kts | 291° |
| 2026-05-04 17:52 | 54.37498 | 18.47642 | 481 ft | 75 kts | 292° |
| 2026-05-04 17:53 | 54.37663 | 18.47035 | 472 ft | 38 kts | 302° |
| 2026-05-04 17:53 | 54.37783 | 18.46796 | 474 ft | 16 kts | 319° |
| 2026-05-04 17:53 | 54.37827 | 18.46737 | 473 ft | 4 kts | 321° |
| 2026-05-04 17:53 | 54.37851 | 18.46708 | 473 ft | 5 kts | 327° |
| 2026-05-04 17:54 | 54.37878 | 18.46662 | 473 ft | 6 kts | 310° |
| 2026-05-04 17:54 | 54.37917 | 18.46608 | 472 ft | 8 kts | 328° |
| 2026-05-04 17:54 | 54.37977 | 18.46579 | 472 ft | 10 kts | 358° |
| 2026-05-04 17:54 | 54.38043 | 18.46617 | 469 ft | 11 kts | 17° |
| 2026-05-04 17:55 | 54.38108 | 18.46665 | 471 ft | 1 kts | 37° |